Capitol Logistics 7311

Operating for MZN



KSBD
San Bernardino International Airport
San Bernardino, California
KRFD
Chicago/Rockford International Airport
Rockford, Illinois

Activity Log

Date Flight Route Aircraft Duration
No Flights Yet

Route Details

Aircraft Information
Primary: Boeing 767-300BDSF
Backup: Boeing 757-200SF
Route Data
Distance: 1410nm
Duration: 3h 35m
Recm'd Route: GUNNR WELUM Q94 ROOLL HBU J146 IOW RFD
Origin Wx: KSBD 180058Z 17008G18KT 140V200 10SM SCT120 27/03 A2988
Dest. Wx: KRFD 180054Z 01007KT 10SM BKN250 12/M01 A2995 RMK AO2 SLP146 T01171011
Notes: